createdAt,value
2017-07-28T00:01:30.761Z,66.20
2017-07-28T00:04:34.805Z,67.40
2017-07-28T00:07:38.146Z,67.40
2017-07-28T00:10:41.450Z,66.70
2017-07-28T00:13:45.535Z,67.40
2017-07-28T00:16:48.815Z,67.60
2017-07-28T00:19:52.127Z,68.50
2017-07-28T00:22:55.429Z,68.00
2017-07-28T00:25:58.750Z,68.00
2017-07-28T00:29:03.178Z,68.40
2017-07-28T00:32:07.222Z,68.20
2017-07-28T00:35:10.561Z,68.20
2017-07-28T00:38:13.863Z,68.00
2017-07-28T00:41:17.201Z,68.00
2017-07-28T00:44:20.500Z,68.20
2017-07-28T00:47:23.829Z,68.70
2017-07-28T00:50:27.117Z,68.40
2017-07-28T00:53:30.457Z,68.40
2017-07-28T00:56:34.497Z,68.40
2017-07-28T00:59:37.833Z,68.70
2017-07-28T01:02:41.272Z,68.70
2017-07-28T01:05:45.350Z,68.90
2017-07-28T01:08:48.691Z,68.80
2017-07-28T01:11:52.757Z,68.60
2017-07-28T01:14:56.090Z,68.60
2017-07-28T01:17:59.403Z,68.80
2017-07-28T01:21:02.736Z,69.00
2017-07-28T01:24:06.002Z,68.40
2017-07-28T01:27:09.341Z,68.90
2017-07-28T01:30:12.681Z,69.20
2017-07-28T01:33:16.752Z,69.50
2017-07-28T01:36:20.067Z,69.40
2017-07-28T01:39:23.368Z,69.30
2017-07-28T01:42:26.702Z,68.80
2017-07-28T01:45:29.987Z,69.30
2017-07-28T01:48:33.326Z,68.30
2017-07-28T01:51:36.623Z,68.00
2017-07-28T01:54:39.934Z,68.80
2017-07-28T01:57:43.376Z,68.30
2017-07-28T02:00:46.662Z,68.20
2017-07-28T02:03:50.877Z,67.90
2017-07-28T02:06:54.946Z,68.50
2017-07-28T02:09:58.285Z,68.40
2017-07-28T02:13:01.587Z,68.10
2017-07-28T02:16:05.841Z,68.50
2017-07-28T02:19:09.148Z,68.50
2017-07-28T02:22:12.480Z,67.10
2017-07-28T02:25:15.788Z,67.30
2017-07-28T02:28:19.862Z,67.60
2017-07-28T02:31:23.138Z,67.60
2017-07-28T02:34:26.441Z,66.90
2017-07-28T02:37:29.730Z,67.40
2017-07-28T02:40:33.065Z,67.30
2017-07-28T02:43:36.345Z,66.90
2017-07-28T02:46:39.696Z,66.90
2017-07-28T02:49:43.020Z,66.90
2017-07-28T02:52:46.335Z,66.50
2017-07-28T02:55:49.609Z,66.20
2017-07-28T02:58:52.922Z,66.40
2017-07-28T03:01:56.360Z,67.00
2017-07-28T03:05:00.408Z,66.70
2017-07-28T03:08:03.733Z,66.70
2017-07-28T03:11:07.014Z,65.90
2017-07-28T03:14:10.330Z,66.70
2017-07-28T03:17:13.605Z,65.80
2017-07-28T03:20:16.944Z,65.70
2017-07-28T03:23:20.999Z,66.00
2017-07-28T03:26:24.306Z,65.60
2017-07-28T03:29:27.620Z,65.50
2017-07-28T03:32:30.919Z,65.00
2017-07-28T03:35:34.231Z,66.20
2017-07-28T03:38:37.540Z,65.70
2017-07-28T03:41:41.657Z,65.80
2017-07-28T03:44:45.715Z,65.20
2017-07-28T03:47:49.029Z,65.10
2017-07-28T03:50:52.306Z,65.10
2017-07-28T03:53:55.656Z,64.40
2017-07-28T03:56:59.861Z,64.10
2017-07-28T04:00:03.168Z,64.10
2017-07-28T04:03:06.508Z,64.80
2017-07-28T04:06:09.808Z,65.00
2017-07-28T04:09:13.136Z,65.10
2017-07-28T04:12:16.414Z,64.70
2017-07-28T04:15:19.726Z,65.30
2017-07-28T04:18:23.029Z,65.70
2017-07-28T04:21:26.368Z,65.50
2017-07-28T04:24:29.681Z,65.60
2017-07-28T04:27:33.016Z,65.80
2017-07-28T04:30:36.317Z,65.60
2017-07-28T04:33:39.658Z,65.40
2017-07-28T04:36:42.978Z,66.10
2017-07-28T04:39:46.286Z,67.00
2017-07-28T04:42:49.728Z,66.40
2017-07-28T04:45:53.838Z,66.20
2017-07-28T04:48:57.940Z,66.40
2017-07-28T04:52:01.235Z,66.40
2017-07-28T04:55:04.553Z,67.30
2017-07-28T04:58:08.599Z,67.50
2017-07-28T05:01:11.907Z,67.40
2017-07-28T05:04:15.345Z,67.90
2017-07-28T05:07:18.632Z,67.30
2017-07-28T05:10:22.046Z,67.60
2017-07-28T05:13:26.116Z,68.30
2017-07-28T05:16:29.452Z,68.20
2017-07-28T05:19:33.532Z,68.50
2017-07-28T05:22:36.845Z,68.20
2017-07-28T05:25:40.409Z,68.70
2017-07-28T05:28:43.694Z,68.90
2017-07-28T05:31:47.006Z,68.30
2017-07-28T05:34:50.312Z,68.50
2017-07-28T05:37:53.625Z,68.90
2017-07-28T05:40:56.905Z,68.60
2017-07-28T05:44:00.240Z,69.00
2017-07-28T05:47:04.309Z,68.40
2017-07-28T05:50:07.644Z,68.40
2017-07-28T05:53:10.981Z,68.40
2017-07-28T05:56:14.258Z,69.00
2017-07-28T05:59:18.441Z,68.90
2017-07-28T06:02:21.749Z,68.90
2017-07-28T06:05:25.062Z,69.30
2017-07-28T06:08:29.129Z,69.10
2017-07-28T06:11:32.441Z,69.00
2017-07-28T06:14:35.741Z,69.10
2017-07-28T06:17:39.088Z,69.10
2017-07-28T06:20:42.510Z,69.60
2017-07-28T06:23:45.785Z,69.80
2017-07-28T06:26:49.770Z,69.50
2017-07-28T06:29:53.834Z,69.50
2017-07-28T06:32:57.143Z,69.50
2017-07-28T06:36:00.422Z,70.10
2017-07-28T06:39:03.780Z,69.80
2017-07-28T06:42:07.061Z,69.70
2017-07-28T06:45:11.133Z,70.40
2017-07-28T06:48:14.553Z,70.40
2017-07-28T06:51:17.839Z,70.40
2017-07-28T06:54:21.149Z,70.20
2017-07-28T06:57:24.447Z,70.30
2017-07-28T07:00:27.782Z,70.20
2017-07-28T07:03:31.088Z,70.30
2017-07-28T07:06:34.425Z,70.10
2017-07-28T07:09:37.918Z,69.70
2017-07-28T07:12:41.199Z,69.00
2017-07-28T07:15:44.506Z,68.70
2017-07-28T07:18:47.809Z,69.60
2017-07-28T07:21:51.128Z,69.20
2017-07-28T07:24:54.406Z,70.10
2017-07-28T07:27:57.714Z,69.60
2017-07-28T07:31:00.998Z,69.70
2017-07-28T07:34:04.310Z,69.40
2017-07-28T07:37:07.591Z,69.40
2017-07-28T07:40:10.904Z,68.80
2017-07-28T07:43:15.293Z,69.40
2017-07-28T07:46:18.598Z,68.40
2017-07-28T07:49:21.909Z,68.20
2017-07-28T07:52:25.213Z,68.20
2017-07-28T07:55:29.291Z,69.90
2017-07-28T07:58:32.598Z,69.50
2017-07-28T08:01:35.942Z,69.70
2017-07-28T08:04:39.283Z,70.00
2017-07-28T08:07:42.628Z,68.80
2017-07-28T08:10:46.729Z,68.70
2017-07-28T08:13:50.005Z,68.70
2017-07-28T08:16:53.331Z,68.90
2017-07-28T08:19:57.400Z,68.20
2017-07-28T08:23:00.721Z,68.20
2017-07-28T08:26:04.061Z,68.60
2017-07-28T08:29:07.365Z,68.70
2017-07-28T08:32:10.678Z,68.60
2017-07-28T08:35:13.962Z,69.20
2017-07-28T08:38:17.270Z,69.00
2017-07-28T08:41:20.578Z,67.90
2017-07-28T08:44:23.882Z,68.40
2017-07-28T08:47:27.214Z,68.20
2017-07-28T08:50:30.501Z,67.30
2017-07-28T08:53:34.605Z,67.50
2017-07-28T08:56:37.978Z,67.30
2017-07-28T08:59:41.297Z,67.60
2017-07-28T09:02:44.634Z,68.30
2017-07-28T09:05:47.926Z,65.70
2017-07-28T09:08:51.262Z,65.90
2017-07-28T09:11:54.578Z,66.70
2017-07-28T09:14:57.876Z,66.20
2017-07-28T09:18:01.213Z,65.60
2017-07-28T09:21:04.496Z,62.50
2017-07-28T09:24:07.849Z,62.50
2017-07-28T09:27:11.181Z,63.50
2017-07-28T09:30:15.222Z,64.10
2017-07-28T09:33:18.567Z,64.10
2017-07-28T09:36:21.858Z,62.70
2017-07-28T09:39:25.178Z,61.90
2017-07-28T09:42:29.231Z,61.70
2017-07-28T09:45:32.574Z,61.60
2017-07-28T09:48:35.893Z,61.60
2017-07-28T09:51:39.962Z,60.40
2017-07-28T09:54:43.271Z,60.40
2017-07-28T09:57:46.559Z,60.80
2017-07-28T10:00:49.902Z,60.60
2017-07-28T10:03:53.237Z,60.50
2017-07-28T10:06:56.743Z,59.50
2017-07-28T10:10:00.018Z,59.80
2017-07-28T10:13:03.349Z,60.20
2017-07-28T10:16:06.648Z,57.20
2017-07-28T10:19:09.992Z,60.10
2017-07-28T10:22:13.286Z,58.40
2017-07-28T10:25:16.602Z,56.90
2017-07-28T10:28:20.122Z,58.00
2017-07-28T10:31:23.405Z,57.40
2017-07-28T10:34:26.721Z,57.50
2017-07-28T10:37:30.003Z,57.90
2017-07-28T10:40:33.325Z,57.70
2017-07-28T10:43:36.631Z,58.30
2017-07-28T10:46:40.710Z,59.60
2017-07-28T10:49:44.029Z,59.10
2017-07-28T10:52:47.336Z,56.70
2017-07-28T10:55:50.662Z,58.20
2017-07-28T10:58:53.955Z,56.60
2017-07-28T11:01:57.269Z,57.60
2017-07-28T11:05:00.572Z,56.70
2017-07-28T11:08:04.014Z,58.20
2017-07-28T11:11:07.330Z,57.60
2017-07-28T11:14:11.425Z,57.60
2017-07-28T11:17:15.637Z,57.60
2017-07-28T11:20:18.969Z,57.20
2017-07-28T11:23:22.300Z,57.80
2017-07-28T11:26:25.579Z,57.90
2017-07-28T11:29:28.890Z,57.50
2017-07-28T11:32:32.197Z,56.80
2017-07-28T11:35:35.528Z,57.80
2017-07-28T11:38:39.620Z,58.20
2017-07-28T11:41:42.898Z,58.20
2017-07-28T11:44:46.207Z,59.80
2017-07-28T11:47:49.511Z,58.80
2017-07-28T11:50:52.865Z,58.50
2017-07-28T11:53:56.216Z,57.20
2017-07-28T11:56:59.490Z,57.60
2017-07-28T12:00:02.803Z,58.30
2017-07-28T12:03:06.278Z,60.10
2017-07-28T12:06:09.760Z,58.50
2017-07-28T12:09:13.084Z,58.00
2017-07-28T12:12:16.501Z,56.50
2017-07-28T12:15:19.805Z,56.20
2017-07-28T12:18:23.984Z,56.00
2017-07-28T12:21:27.285Z,55.20
2017-07-28T12:24:30.621Z,54.40
2017-07-28T12:27:34.675Z,56.30
2017-07-28T12:30:37.982Z,55.70
2017-07-28T12:33:41.421Z,52.80
2017-07-28T12:36:44.697Z,54.00
2017-07-28T12:39:48.018Z,53.60
2017-07-28T12:42:52.079Z,55.00
2017-07-28T12:45:55.405Z,55.00
2017-07-28T12:48:58.710Z,54.20
2017-07-28T12:52:02.822Z,54.70
2017-07-28T12:55:06.117Z,54.30
2017-07-28T12:58:09.434Z,52.30
2017-07-28T13:01:13.510Z,52.60
2017-07-28T13:04:16.800Z,52.60
2017-07-28T13:07:20.125Z,54.30
2017-07-28T13:10:23.402Z,55.00
2017-07-28T13:13:26.721Z,55.20
2017-07-28T13:16:30.029Z,55.50
2017-07-28T13:19:34.126Z,55.20
2017-07-28T13:22:37.402Z,55.20
2017-07-28T13:25:40.742Z,54.50
2017-07-28T13:28:44.052Z,55.00
2017-07-28T13:31:47.337Z,56.20
2017-07-28T13:34:50.651Z,56.40
2017-07-28T13:37:53.935Z,57.80
2017-07-28T13:40:57.245Z,56.40
2017-07-28T13:44:00.546Z,56.90
2017-07-28T13:47:03.876Z,56.10
2017-07-28T13:50:07.165Z,55.90
2017-07-28T13:53:10.497Z,56.70
2017-07-28T13:56:14.569Z,56.40
2017-07-28T13:59:17.873Z,56.30
2017-07-28T14:02:21.150Z,57.80
2017-07-28T14:05:24.483Z,56.00
2017-07-28T14:08:27.937Z,56.90
2017-07-28T14:11:31.222Z,56.20
2017-07-28T14:14:34.539Z,56.90
2017-07-28T14:17:37.841Z,56.60
2017-07-28T14:20:41.154Z,56.30
2017-07-28T14:23:44.429Z,56.50
2017-07-28T14:26:47.765Z,55.50
2017-07-28T14:29:51.333Z,56.30
2017-07-28T14:32:54.641Z,56.20
2017-07-28T14:35:57.977Z,55.90
2017-07-28T14:39:01.293Z,56.80
2017-07-28T14:42:04.602Z,58.00
2017-07-28T14:45:07.906Z,56.60
2017-07-28T14:48:11.236Z,56.50
2017-07-28T14:51:14.538Z,57.30
2017-07-28T14:54:17.849Z,56.90
2017-07-28T14:57:21.926Z,57.20
2017-07-28T15:00:25.210Z,57.20
2017-07-28T15:03:28.622Z,58.10
2017-07-28T15:06:31.911Z,60.30
2017-07-28T15:09:35.220Z,59.50
2017-07-28T15:12:38.501Z,58.70
2017-07-28T15:15:41.834Z,58.10
2017-07-28T15:18:45.877Z,56.60
2017-07-28T15:21:49.181Z,56.60
2017-07-28T15:24:52.538Z,56.50
2017-07-28T15:27:56.617Z,59.10
2017-07-28T15:30:59.934Z,59.10
2017-07-28T15:34:03.237Z,59.90
2017-07-28T15:37:06.556Z,60.90
2017-07-28T15:40:09.862Z,59.50
2017-07-28T15:43:13.199Z,58.10
2017-07-28T15:46:16.518Z,57.80
2017-07-28T15:49:19.845Z,58.40
2017-07-28T15:52:23.364Z,59.50
2017-07-28T15:55:27.447Z,61.90
2017-07-28T15:58:30.775Z,61.90
2017-07-28T16:01:34.078Z,59.90
2017-07-28T16:04:37.420Z,59.60
2017-07-28T16:07:40.698Z,58.50
2017-07-28T16:10:44.036Z,57.30
2017-07-28T16:13:47.773Z,57.40
2017-07-28T16:16:51.058Z,59.20
2017-07-28T16:19:54.410Z,59.40
2017-07-28T16:22:57.781Z,58.50
2017-07-28T16:26:01.095Z,57.70
2017-07-28T16:29:04.385Z,58.20
2017-07-28T16:32:08.493Z,61.00
2017-07-28T16:35:12.597Z,61.60
2017-07-28T16:38:15.913Z,61.00
2017-07-28T16:41:20.022Z,62.60
2017-07-28T16:44:23.304Z,62.60
2017-07-28T16:47:26.654Z,62.70
2017-07-28T16:50:29.940Z,63.60
2017-07-28T16:53:33.257Z,64.60
2017-07-28T16:56:36.547Z,66.50
2017-07-28T16:59:39.866Z,65.00
2017-07-28T17:02:43.179Z,58.50
2017-07-28T17:05:46.531Z,56.90
2017-07-28T17:08:49.840Z,56.70
2017-07-28T17:11:53.184Z,57.10
2017-07-28T17:14:56.479Z,56.80
2017-07-28T17:17:59.792Z,55.30
2017-07-28T17:21:03.252Z,55.50
2017-07-28T17:24:06.561Z,55.70
2017-07-28T17:27:09.877Z,55.80
2017-07-28T17:30:13.950Z,56.60
2017-07-28T17:33:17.257Z,55.90
2017-07-28T17:36:20.556Z,56.40
2017-07-28T17:39:23.864Z,56.50
2017-07-28T17:42:27.386Z,56.40
2017-07-28T17:45:31.457Z,58.70
2017-07-28T17:48:34.794Z,58.70
2017-07-28T17:51:38.866Z,60.70
2017-07-28T17:54:42.196Z,60.60
2017-07-28T17:57:46.266Z,62.50
2017-07-28T18:00:49.583Z,62.30
2017-07-28T18:03:53.354Z,62.80
2017-07-28T18:06:56.654Z,61.40
2017-07-28T18:09:59.959Z,59.90
2017-07-28T18:13:03.266Z,60.80
2017-07-28T18:16:06.601Z,59.10
2017-07-28T18:19:10.647Z,60.10
2017-07-28T18:22:13.978Z,60.10
2017-07-28T18:25:17.254Z,62.80
2017-07-28T18:28:20.560Z,61.70
2017-07-28T18:31:23.842Z,62.60
2017-07-28T18:34:27.177Z,62.00
2017-07-28T18:37:30.511Z,64.60
2017-07-28T18:40:33.790Z,64.70
2017-07-28T18:43:37.871Z,65.60
2017-07-28T18:46:41.174Z,65.50
2017-07-28T18:49:44.485Z,67.00
2017-07-28T18:52:48.540Z,67.10
2017-07-28T18:55:51.886Z,67.10
2017-07-28T18:58:55.415Z,68.10
2017-07-28T19:01:58.716Z,67.90
2017-07-28T19:05:02.059Z,68.40
2017-07-28T19:08:06.133Z,68.50
2017-07-28T19:11:09.461Z,68.40
2017-07-28T19:14:12.778Z,68.50
2017-07-28T19:17:16.912Z,66.60
2017-07-28T19:20:20.244Z,66.40
2017-07-28T19:23:23.534Z,65.60
2017-07-28T19:26:26.849Z,67.00
2017-07-28T19:29:30.152Z,66.00
2017-07-28T19:32:33.494Z,66.80
2017-07-28T19:35:36.923Z,67.90
2017-07-28T19:38:40.217Z,67.30
2017-07-28T19:41:43.566Z,67.70
2017-07-28T19:44:46.888Z,68.50
2017-07-28T19:47:50.220Z,67.30
2017-07-28T19:50:53.546Z,67.20
2017-07-28T19:53:56.876Z,65.30
2017-07-28T19:57:00.302Z,64.90
2017-07-28T20:00:03.597Z,65.60
2017-07-28T20:03:06.942Z,66.30
2017-07-28T20:06:11.013Z,66.00
2017-07-28T20:09:14.360Z,65.30
2017-07-28T20:12:18.437Z,63.70
2017-07-28T20:15:21.772Z,63.60
2017-07-28T20:18:25.126Z,62.30
2017-07-28T20:21:28.567Z,62.80
2017-07-28T20:24:33.269Z,64.00
2017-07-28T20:27:37.355Z,63.90
2017-07-28T20:30:40.705Z,63.80
2017-07-28T20:33:44.007Z,64.30
2017-07-28T20:36:47.317Z,66.70
2017-07-28T20:39:50.625Z,67.20
2017-07-28T20:42:53.935Z,68.70
2017-07-28T20:45:57.222Z,68.40
2017-07-28T20:49:00.571Z,69.40
2017-07-28T20:52:04.659Z,72.30
2017-07-28T20:55:07.994Z,72.30
2017-07-28T20:58:11.281Z,72.30
2017-07-28T21:01:14.707Z,72.30
2017-07-28T21:04:18.120Z,73.10
2017-07-28T21:07:21.399Z,72.70
2017-07-28T21:10:24.727Z,72.50
2017-07-28T21:13:28.010Z,73.20
2017-07-28T21:16:31.346Z,73.90
2017-07-28T21:19:35.408Z,74.40
2017-07-28T21:22:38.748Z,74.40
2017-07-28T21:25:42.049Z,75.00
2017-07-28T21:28:46.142Z,74.70
2017-07-28T21:31:49.448Z,74.70
2017-07-28T21:34:52.792Z,75.00
2017-07-28T21:37:56.102Z,75.10
2017-07-28T21:40:59.401Z,75.10
2017-07-28T21:44:02.767Z,75.20
2017-07-28T21:47:06.097Z,74.90
2017-07-28T21:50:09.589Z,75.10
2017-07-28T21:53:12.962Z,75.20
2017-07-28T21:56:16.466Z,74.70
2017-07-28T21:59:20.018Z,75.40
2017-07-28T22:02:23.377Z,75.60
2017-07-28T22:05:26.829Z,75.60
2017-07-28T22:08:30.231Z,75.50
2017-07-28T22:11:34.330Z,75.90
2017-07-28T22:14:37.613Z,75.80
2017-07-28T22:17:40.947Z,75.60
2017-07-28T22:20:45.006Z,75.80
2017-07-28T22:23:48.342Z,75.70
2017-07-28T22:26:51.626Z,75.90
2017-07-28T22:29:54.969Z,75.80
2017-07-28T22:32:58.404Z,75.80
2017-07-28T22:36:01.681Z,75.40
2017-07-28T22:39:04.989Z,75.20
2017-07-28T22:42:08.270Z,75.10
2017-07-28T22:45:11.600Z,75.50
2017-07-28T22:48:14.885Z,76.50
2017-07-28T22:51:18.224Z,75.70
2017-07-28T22:54:22.305Z,76.10
2017-07-28T22:57:25.605Z,76.00
2017-07-28T23:00:28.926Z,76.00
2017-07-28T23:03:32.975Z,75.20
2017-07-28T23:06:36.285Z,75.70
2017-07-28T23:09:39.802Z,75.60
2017-07-28T23:12:43.086Z,75.70
2017-07-28T23:15:46.399Z,75.80
2017-07-28T23:18:49.677Z,76.00
2017-07-28T23:21:52.986Z,76.10
2017-07-28T23:24:56.261Z,76.10
2017-07-28T23:27:59.593Z,75.80
2017-07-28T23:31:02.892Z,75.70
2017-07-28T23:34:06.226Z,75.80
2017-07-28T23:37:09.529Z,76.40
2017-07-28T23:40:12.843Z,76.00
2017-07-28T23:43:16.256Z,75.80
2017-07-28T23:46:19.550Z,76.30
2017-07-28T23:49:22.857Z,76.30
2017-07-28T23:52:26.161Z,76.10
2017-07-28T23:55:29.474Z,75.80
2017-07-28T23:58:32.774Z,75.90
